Terminal Aerodrome Forecast
Issued by NWS Mt. Holly, NJ

Home | Current Version | Previous Version | Text Only | Print | Product List | Glossary On
Versions: 1 2 3 4 5 6 7 8 9 10 11 12 13 14 15 16 17 18 19 20 21 22
000
FTUS41 KPHI 221432 AAA
TAFRDG
TAF AMD
KRDG 221432Z 2215/2312 VRB03KT P6SM SCT008 SCT250
     FM221600 21008KT P6SM SCT050
     FM222000 21010KT P6SM BKN060
     FM230000 VRB05KT P6SM OVC060 PROB30 2301/2307 4SM -TSRA
      OVC035CB=

USA.gov is the U.S. government's official web portal to all federal, state and local government web resources and services.